sensor_id;sensor_type;location;lat;lon;timestamp;pressure;altitude;pressure_sealevel;temperature;humidity
26376;BME280;30544;42.196;24.336;2023-06-24T00:00:20;99077.59;;;27.30;60.44
26376;BME280;30544;42.196;24.336;2023-06-24T00:02:47;99085.13;;;27.38;59.62
26376;BME280;30544;42.196;24.336;2023-06-24T00:05:16;99082.84;;;27.15;60.22
26376;BME280;30544;42.196;24.336;2023-06-24T00:07:44;99080.16;;;27.07;60.46
26376;BME280;30544;42.196;24.336;2023-06-24T00:10:11;99080.41;;;27.02;60.56
26376;BME280;30544;42.196;24.336;2023-06-24T00:12:38;99075.72;;;27.21;60.00
26376;BME280;30544;42.196;24.336;2023-06-24T00:15:08;99074.59;;;27.10;59.56
26376;BME280;30544;42.196;24.336;2023-06-24T00:17:36;99067.91;;;27.18;59.45
26376;BME280;30544;42.196;24.336;2023-06-24T00:20:03;99073.91;;;27.29;58.76
26376;BME280;30544;42.196;24.336;2023-06-24T00:22:33;99070.97;;;27.25;59.07
26376;BME280;30544;42.196;24.336;2023-06-24T00:25:01;99072.34;;;27.32;59.20
26376;BME280;30544;42.196;24.336;2023-06-24T00:27:28;99068.22;;;27.29;58.57
26376;BME280;30544;42.196;24.336;2023-06-24T00:29:55;99070.59;;;27.27;59.32
26376;BME280;30544;42.196;24.336;2023-06-24T00:32:21;99072.25;;;27.28;58.77
26376;BME280;30544;42.196;24.336;2023-06-24T00:34:48;99071.47;;;27.43;58.66
26376;BME280;30544;42.196;24.336;2023-06-24T00:37:15;99068.53;;;27.40;58.20
26376;BME280;30544;42.196;24.336;2023-06-24T00:39:42;99061.44;;;27.34;58.53
26376;BME280;30544;42.196;24.336;2023-06-24T00:42:10;99064.81;;;27.23;58.79
26376;BME280;30544;42.196;24.336;2023-06-24T00:44:37;99061.63;;;27.13;59.15
26376;BME280;30544;42.196;24.336;2023-06-24T00:47:05;99060.81;;;27.12;59.57
26376;BME280;30544;42.196;24.336;2023-06-24T00:49:33;99063.78;;;27.04;59.98
26376;BME280;30544;42.196;24.336;2023-06-24T00:52:00;99058.78;;;27.13;59.11
26376;BME280;30544;42.196;24.336;2023-06-24T00:54:27;99062.19;;;27.18;58.85
26376;BME280;30544;42.196;24.336;2023-06-24T00:56:56;99055.31;;;27.19;59.51
26376;BME280;30544;42.196;24.336;2023-06-24T00:59:27;99061.91;;;27.08;59.64
26376;BME280;30544;42.196;24.336;2023-06-24T01:01:55;99059.88;;;27.08;59.93
26376;BME280;30544;42.196;24.336;2023-06-24T01:04:22;99060.72;;;27.09;59.98
26376;BME280;30544;42.196;24.336;2023-06-24T01:06:50;99061.81;;;26.92;60.42
26376;BME280;30544;42.196;24.336;2023-06-24T01:09:17;99070.09;;;26.85;60.27
26376;BME280;30544;42.196;24.336;2023-06-24T01:11:44;99067.72;;;26.87;60.33
26376;BME280;30544;42.196;24.336;2023-06-24T01:14:10;99066.78;;;26.95;59.85
26376;BME280;30544;42.196;24.336;2023-06-24T01:16:44;99060.75;;;26.84;60.81
26376;BME280;30544;42.196;24.336;2023-06-24T01:19:37;99064.38;;;26.57;61.69
26376;BME280;30544;42.196;24.336;2023-06-24T01:22:23;99059.84;;;26.68;61.24
26376;BME280;30544;42.196;24.336;2023-06-24T01:25:06;99058.22;;;26.55;61.62
26376;BME280;30544;42.196;24.336;2023-06-24T01:27:45;99061.28;;;26.62;61.33
26376;BME280;30544;42.196;24.336;2023-06-24T01:30:41;99065.81;;;26.38;61.75
26376;BME280;30544;42.196;24.336;2023-06-24T01:33:20;99067.19;;;26.32;62.27
26376;BME280;30544;42.196;24.336;2023-06-24T01:35:51;99069.13;;;26.41;61.96
26376;BME280;30544;42.196;24.336;2023-06-24T01:38:27;99057.16;;;26.35;61.87
26376;BME280;30544;42.196;24.336;2023-06-24T01:40:58;99060.69;;;26.20;62.49
26376;BME280;30544;42.196;24.336;2023-06-24T01:43:28;99068.50;;;26.11;62.90
26376;BME280;30544;42.196;24.336;2023-06-24T01:45:56;99068.97;;;26.00;63.44
26376;BME280;30544;42.196;24.336;2023-06-24T01:48:27;99067.44;;;25.91;63.81
26376;BME280;30544;42.196;24.336;2023-06-24T01:50:58;99071.44;;;25.90;63.68
26376;BME280;30544;42.196;24.336;2023-06-24T01:53:27;99076.44;;;25.93;63.31
26376;BME280;30544;42.196;24.336;2023-06-24T01:55:57;99077.25;;;25.93;63.18
26376;BME280;30544;42.196;24.336;2023-06-24T01:58:25;99086.72;;;25.97;63.17
26376;BME280;30544;42.196;24.336;2023-06-24T02:00:52;99086.84;;;25.89;63.47
26376;BME280;30544;42.196;24.336;2023-06-24T02:03:21;99087.66;;;25.89;63.35
26376;BME280;30544;42.196;24.336;2023-06-24T02:05:51;99071.81;;;26.13;62.76
26376;BME280;30544;42.196;24.336;2023-06-24T02:08:21;99087.53;;;25.98;62.95
26376;BME280;30544;42.196;24.336;2023-06-24T02:10:50;99089.28;;;25.78;63.54
26376;BME280;30544;42.196;24.336;2023-06-24T02:13:18;99093.91;;;25.70;63.61
26376;BME280;30544;42.196;24.336;2023-06-24T02:15:47;99097.03;;;25.57;63.82
26376;BME280;30544;42.196;24.336;2023-06-24T02:18:16;99102.69;;;25.57;63.90
26376;BME280;30544;42.196;24.336;2023-06-24T02:20:44;99106.72;;;25.56;64.07
26376;BME280;30544;42.196;24.336;2023-06-24T02:23:14;99108.03;;;25.58;63.69
26376;BME280;30544;42.196;24.336;2023-06-24T02:25:42;99114.66;;;25.62;63.52
26376;BME280;30544;42.196;24.336;2023-06-24T02:28:09;99120.22;;;25.59;63.69
26376;BME280;30544;42.196;24.336;2023-06-24T02:30:37;99121.25;;;25.54;63.61
26376;BME280;30544;42.196;24.336;2023-06-24T02:33:05;99126.41;;;25.40;63.96
26376;BME280;30544;42.196;24.336;2023-06-24T02:35:32;99119.75;;;25.36;63.80
26376;BME280;30544;42.196;24.336;2023-06-24T02:37:58;99123.00;;;25.46;63.50
26376;BME280;30544;42.196;24.336;2023-06-24T02:40:27;99122.34;;;25.62;62.81
26376;BME280;30544;42.196;24.336;2023-06-24T02:42:54;99123.59;;;25.52;62.60
26376;BME280;30544;42.196;24.336;2023-06-24T02:45:21;99132.97;;;25.32;63.26
26376;BME280;30544;42.196;24.336;2023-06-24T02:47:49;99132.38;;;25.26;63.23
26376;BME280;30544;42.196;24.336;2023-06-24T02:50:16;99135.94;;;25.35;62.75
26376;BME280;30544;42.196;24.336;2023-06-24T02:52:43;99141.56;;;25.44;62.24
26376;BME280;30544;42.196;24.336;2023-06-24T02:55:11;99138.47;;;25.37;61.90
26376;BME280;30544;42.196;24.336;2023-06-24T02:57:40;99133.41;;;25.42;61.40
26376;BME280;30544;42.196;24.336;2023-06-24T03:00:08;99128.03;;;25.62;60.71
26376;BME280;30544;42.196;24.336;2023-06-24T03:02:38;99129.31;;;25.64;60.98
26376;BME280;30544;42.196;24.336;2023-06-24T03:05:06;99127.75;;;25.75;60.07
26376;BME280;30544;42.196;24.336;2023-06-24T03:07:34;99130.00;;;25.82;59.44
26376;BME280;30544;42.196;24.336;2023-06-24T03:10:03;99127.97;;;25.70;59.76
26376;BME280;30544;42.196;24.336;2023-06-24T03:12:31;99126.44;;;25.73;59.37
26376;BME280;30544;42.196;24.336;2023-06-24T03:14:59;99116.53;;;25.58;60.29
26376;BME280;30544;42.196;24.336;2023-06-24T03:17:26;99124.94;;;25.67;60.03
26376;BME280;30544;42.196;24.336;2023-06-24T03:19:53;99124.94;;;25.67;59.79
26376;BME280;30544;42.196;24.336;2023-06-24T03:22:21;99122.91;;;25.76;58.75
26376;BME280;30544;42.196;24.336;2023-06-24T03:24:48;99138.63;;;25.86;59.10
26376;BME280;30544;42.196;24.336;2023-06-24T03:27:15;99136.19;;;25.96;59.32
26376;BME280;30544;42.196;24.336;2023-06-24T03:29:41;99136.94;;;26.05;60.22
26376;BME280;30544;42.196;24.336;2023-06-24T03:32:10;99142.34;;;25.98;60.97
26376;BME280;30544;42.196;24.336;2023-06-24T03:34:36;99132.53;;;25.96;62.09
26376;BME280;30544;42.196;24.336;2023-06-24T03:37:04;99138.59;;;26.06;60.71
26376;BME280;30544;42.196;24.336;2023-06-24T03:39:30;99136.47;;;26.16;58.52
26376;BME280;30544;42.196;24.336;2023-06-24T03:41:57;99139.41;;;26.07;58.27
26376;BME280;30544;42.196;24.336;2023-06-24T03:44:24;99139.06;;;26.08;58.11
26376;BME280;30544;42.196;24.336;2023-06-24T03:46:50;99144.97;;;26.03;58.12
26376;BME280;30544;42.196;24.336;2023-06-24T03:49:19;99145.66;;;25.88;58.46
26376;BME280;30544;42.196;24.336;2023-06-24T03:51:46;99150.75;;;25.95;58.03
26376;BME280;30544;42.196;24.336;2023-06-24T03:54:12;99144.53;;;26.26;57.89
26376;BME280;30544;42.196;24.336;2023-06-24T03:56:39;99148.25;;;26.75;56.44
26376;BME280;30544;42.196;24.336;2023-06-24T03:59:06;99150.31;;;27.15;55.00
26376;BME280;30544;42.196;24.336;2023-06-24T04:01:33;99162.88;;;27.54;54.18
26376;BME280;30544;42.196;24.336;2023-06-24T04:04:01;99153.59;;;28.13;53.09
26376;BME280;30544;42.196;24.336;2023-06-24T04:06:29;99164.38;;;28.35;51.33
26376;BME280;30544;42.196;24.336;2023-06-24T04:08:56;99163.75;;;28.58;50.78
26376;BME280;30544;42.196;24.336;2023-06-24T04:11:24;99166.47;;;29.01;49.19
26376;BME280;30544;42.196;24.336;2023-06-24T04:13:50;99167.25;;;29.18;49.06
26376;BME280;30544;42.196;24.336;2023-06-24T04:16:17;99159.38;;;29.30;48.62
26376;BME280;30544;42.196;24.336;2023-06-24T04:18:44;99156.81;;;29.60;48.19
26376;BME280;30544;42.196;24.336;2023-06-24T04:21:11;99160.41;;;29.77;47.93
26376;BME280;30544;42.196;24.336;2023-06-24T04:23:39;99169.56;;;29.86;47.00
26376;BME280;30544;42.196;24.336;2023-06-24T04:26:05;99166.47;;;29.94;46.78
26376;BME280;30544;42.196;24.336;2023-06-24T04:28:32;99184.19;;;30.04;45.91
26376;BME280;30544;42.196;24.336;2023-06-24T04:30:59;99191.88;;;30.19;46.12
26376;BME280;30544;42.196;24.336;2023-06-24T04:33:26;99194.13;;;30.29;45.75
26376;BME280;30544;42.196;24.336;2023-06-24T04:35:52;99187.63;;;30.32;45.58
26376;BME280;30544;42.196;24.336;2023-06-24T04:38:19;99187.84;;;30.66;44.94
26376;BME280;30544;42.196;24.336;2023-06-24T04:40:47;99184.22;;;30.92;44.63
26376;BME280;30544;42.196;24.336;2023-06-24T04:43:14;99184.03;;;30.81;44.42
26376;BME280;30544;42.196;24.336;2023-06-24T04:45:41;99192.13;;;31.02;43.73
26376;BME280;30544;42.196;24.336;2023-06-24T04:48:07;99198.41;;;31.11;43.67
26376;BME280;30544;42.196;24.336;2023-06-24T04:50:34;99197.03;;;31.01;43.68
26376;BME280;30544;42.196;24.336;2023-06-24T04:53:01;99205.13;;;31.22;43.04
26376;BME280;30544;42.196;24.336;2023-06-24T04:55:28;99196.53;;;31.22;43.08
26376;BME280;30544;42.196;24.336;2023-06-24T04:57:57;99195.31;;;31.23;42.93
26376;BME280;30544;42.196;24.336;2023-06-24T05:00:24;99203.34;;;31.40;42.58
26376;BME280;30544;42.196;24.336;2023-06-24T05:02:51;99201.44;;;31.48;42.06
26376;BME280;30544;42.196;24.336;2023-06-24T05:05:18;99211.75;;;31.26;41.34
26376;BME280;30544;42.196;24.336;2023-06-24T05:07:45;99214.94;;;31.48;42.21
26376;BME280;30544;42.196;24.336;2023-06-24T05:10:13;99219.56;;;31.29;41.63
26376;BME280;30544;42.196;24.336;2023-06-24T05:12:39;99226.25;;;31.14;41.61
26376;BME280;30544;42.196;24.336;2023-06-24T05:15:08;99225.00;;;31.11;41.84
26376;BME280;30544;42.196;24.336;2023-06-24T05:17:35;99226.22;;;30.88;41.93
26376;BME280;30544;42.196;24.336;2023-06-24T05:20:03;99217.16;;;30.59;42.15
26376;BME280;30544;42.196;24.336;2023-06-24T05:22:30;99221.41;;;30.46;42.52
26376;BME280;30544;42.196;24.336;2023-06-24T05:24:56;99233.72;;;30.50;42.49
26376;BME280;30544;42.196;24.336;2023-06-24T05:27:23;99221.47;;;30.49;42.88
26376;BME280;30544;42.196;24.336;2023-06-24T05:29:50;99225.31;;;30.38;43.47
26376;BME280;30544;42.196;24.336;2023-06-24T05:32:18;99221.84;;;30.25;43.37
26376;BME280;30544;42.196;24.336;2023-06-24T05:34:46;99220.28;;;30.08;43.36
26376;BME280;30544;42.196;24.336;2023-06-24T05:37:12;99216.50;;;30.23;42.88
26376;BME280;30544;42.196;24.336;2023-06-24T05:39:40;99217.53;;;30.15;44.01
26376;BME280;30544;42.196;24.336;2023-06-24T05:42:06;99224.91;;;30.16;43.47
26376;BME280;30544;42.196;24.336;2023-06-24T05:44:33;99227.06;;;30.23;44.37
26376;BME280;30544;42.196;24.336;2023-06-24T05:47:00;99223.53;;;30.30;43.97
26376;BME280;30544;42.196;24.336;2023-06-24T05:49:28;99224.31;;;30.27;44.06
26376;BME280;30544;42.196;24.336;2023-06-24T05:51:56;99227.63;;;30.29;45.02
26376;BME280;30544;42.196;24.336;2023-06-24T05:54:23;99221.88;;;30.29;45.34
26376;BME280;30544;42.196;24.336;2023-06-24T05:56:49;99215.78;;;30.07;45.17
26376;BME280;30544;42.196;24.336;2023-06-24T05:59:16;99213.63;;;30.04;45.79
26376;BME280;30544;42.196;24.336;2023-06-24T06:01:43;99205.41;;;30.03;44.62
26376;BME280;30544;42.196;24.336;2023-06-24T06:04:10;99195.34;;;29.89;45.13
26376;BME280;30544;42.196;24.336;2023-06-24T06:06:38;99192.47;;;29.89;44.95
26376;BME280;30544;42.196;24.336;2023-06-24T06:09:05;99188.34;;;29.87;45.43
26376;BME280;30544;42.196;24.336;2023-06-24T06:11:32;99184.28;;;29.88;46.39
26376;BME280;30544;42.196;24.336;2023-06-24T06:13:59;99188.91;;;29.92;45.86
26376;BME280;30544;42.196;24.336;2023-06-24T06:16:25;99186.88;;;29.93;46.40
26376;BME280;30544;42.196;24.336;2023-06-24T06:18:53;99187.34;;;29.76;46.73
26376;BME280;30544;42.196;24.336;2023-06-24T06:21:21;99195.72;;;29.69;46.97
26376;BME280;30544;42.196;24.336;2023-06-24T06:23:49;99193.88;;;29.76;47.14
26376;BME280;30544;42.196;24.336;2023-06-24T06:26:16;99197.25;;;29.62;46.35
26376;BME280;30544;42.196;24.336;2023-06-24T06:28:43;99194.53;;;29.70;47.20
26376;BME280;30544;42.196;24.336;2023-06-24T06:31:09;99183.94;;;29.70;47.04
26376;BME280;30544;42.196;24.336;2023-06-24T06:33:36;99187.16;;;29.69;46.23
26376;BME280;30544;42.196;24.336;2023-06-24T06:36:03;99171.78;;;29.73;46.06
26376;BME280;30544;42.196;24.336;2023-06-24T06:38:30;99173.63;;;29.85;46.30
26376;BME280;30544;42.196;24.336;2023-06-24T06:40:58;99179.78;;;29.87;46.52
26376;BME280;30544;42.196;24.336;2023-06-24T06:43:25;99183.47;;;29.87;46.08
26376;BME280;30544;42.196;24.336;2023-06-24T06:45:52;99178.41;;;30.00;46.12
26376;BME280;30544;42.196;24.336;2023-06-24T06:48:19;99175.28;;;29.86;46.57
26376;BME280;30544;42.196;24.336;2023-06-24T06:50:45;99168.06;;;29.73;46.48
26376;BME280;30544;42.196;24.336;2023-06-24T06:53:12;99173.03;;;29.76;46.33
26376;BME280;30544;42.196;24.336;2023-06-24T06:55:39;99173.56;;;29.81;46.70
26376;BME280;30544;42.196;24.336;2023-06-24T06:58:09;99172.44;;;29.67;45.26
26376;BME280;30544;42.196;24.336;2023-06-24T07:00:36;99173.41;;;29.55;45.33
26376;BME280;30544;42.196;24.336;2023-06-24T07:03:03;99170.31;;;29.44;45.21
26376;BME280;30544;42.196;24.336;2023-06-24T07:05:30;99159.94;;;29.55;45.25
26376;BME280;30544;42.196;24.336;2023-06-24T07:07:56;99163.53;;;29.72;44.24
26376;BME280;30544;42.196;24.336;2023-06-24T07:10:23;99155.91;;;29.56;45.06
26376;BME280;30544;42.196;24.336;2023-06-24T07:12:50;99164.00;;;29.54;44.47
26376;BME280;30544;42.196;24.336;2023-06-24T07:15:25;99151.03;;;29.57;44.17
26376;BME280;30544;42.196;24.336;2023-06-24T07:17:51;99157.47;;;29.73;43.95
26376;BME280;30544;42.196;24.336;2023-06-24T07:20:19;99158.81;;;29.79;44.30
26376;BME280;30544;42.196;24.336;2023-06-24T07:22:46;99161.91;;;29.71;43.99
26376;BME280;30544;42.196;24.336;2023-06-24T07:25:13;99164.28;;;29.88;43.51
26376;BME280;30544;42.196;24.336;2023-06-24T07:27:39;99156.03;;;29.63;43.41
26376;BME280;30544;42.196;24.336;2023-06-24T07:30:07;99160.16;;;29.85;42.63
26376;BME280;30544;42.196;24.336;2023-06-24T07:32:36;99159.34;;;29.85;42.96
26376;BME280;30544;42.196;24.336;2023-06-24T07:35:03;99159.09;;;29.93;42.92
26376;BME280;30544;42.196;24.336;2023-06-24T07:37:30;99157.06;;;30.13;42.66
26376;BME280;30544;42.196;24.336;2023-06-24T07:39:57;99159.66;;;30.22;42.01
26376;BME280;30544;42.196;24.336;2023-06-24T07:42:23;99142.88;;;30.20;42.19
26376;BME280;30544;42.196;24.336;2023-06-24T07:44:50;99158.84;;;30.21;42.03
26376;BME280;30544;42.196;24.336;2023-06-24T07:47:17;99160.47;;;30.22;42.61
26376;BME280;30544;42.196;24.336;2023-06-24T07:49:45;99154.25;;;30.40;42.36
26376;BME280;30544;42.196;24.336;2023-06-24T07:52:12;99152.56;;;30.58;43.01
26376;BME280;30544;42.196;24.336;2023-06-24T07:54:39;99157.66;;;30.68;42.61
26376;BME280;30544;42.196;24.336;2023-06-24T07:57:06;99164.97;;;30.66;41.38
26376;BME280;30544;42.196;24.336;2023-06-24T07:59:32;99150.59;;;30.62;41.40
26376;BME280;30544;42.196;24.336;2023-06-24T08:01:59;99159.72;;;30.71;41.15
26376;BME280;30544;42.196;24.336;2023-06-24T08:04:26;99155.03;;;30.82;41.26
26376;BME280;30544;42.196;24.336;2023-06-24T08:06:54;99159.91;;;30.82;41.63
26376;BME280;30544;42.196;24.336;2023-06-24T08:09:21;99153.47;;;30.89;41.56
26376;BME280;30544;42.196;24.336;2023-06-24T08:11:47;99150.78;;;30.99;42.49
26376;BME280;30544;42.196;24.336;2023-06-24T08:14:14;99152.88;;;31.02;41.09
26376;BME280;30544;42.196;24.336;2023-06-24T08:16:41;99146.53;;;31.16;41.98
26376;BME280;30544;42.196;24.336;2023-06-24T08:19:08;99151.38;;;31.12;40.26
26376;BME280;30544;42.196;24.336;2023-06-24T08:21:34;99142.09;;;31.19;40.67
26376;BME280;30544;42.196;24.336;2023-06-24T08:24:06;99148.91;;;31.10;40.53
26376;BME280;30544;42.196;24.336;2023-06-24T08:26:32;99144.00;;;31.11;40.98
26376;BME280;30544;42.196;24.336;2023-06-24T08:28:59;99148.09;;;31.10;40.38
26376;BME280;30544;42.196;24.336;2023-06-24T08:31:26;99152.16;;;31.09;39.66
26376;BME280;30544;42.196;24.336;2023-06-24T08:33:53;99160.38;;;31.10;39.68
26376;BME280;30544;42.196;24.336;2023-06-24T08:36:21;99154.19;;;31.35;40.67
26376;BME280;30544;42.196;24.336;2023-06-24T08:38:48;99151.50;;;31.19;39.84
26376;BME280;30544;42.196;24.336;2023-06-24T08:41:16;99144.34;;;31.32;40.13
26376;BME280;30544;42.196;24.336;2023-06-24T08:43:43;99151.03;;;31.43;41.61
26376;BME280;30544;42.196;24.336;2023-06-24T08:46:10;99155.28;;;31.57;40.57
26376;BME280;30544;42.196;24.336;2023-06-24T08:48:39;99150.38;;;31.57;40.85
26376;BME280;30544;42.196;24.336;2023-06-24T08:51:08;99143.19;;;31.70;39.70
26376;BME280;30544;42.196;24.336;2023-06-24T08:53:36;99144.47;;;31.73;40.39
26376;BME280;30544;42.196;24.336;2023-06-24T08:56:04;99142.53;;;31.81;40.18
26376;BME280;30544;42.196;24.336;2023-06-24T08:58:33;99136.00;;;31.84;40.74
26376;BME280;30544;42.196;24.336;2023-06-24T09:01:00;99135.34;;;31.97;40.54
26376;BME280;30544;42.196;24.336;2023-06-24T09:03:27;99137.81;;;31.99;40.01
26376;BME280;30544;42.196;24.336;2023-06-24T09:05:53;99134.53;;;32.00;39.29
26376;BME280;30544;42.196;24.336;2023-06-24T09:08:21;99135.44;;;32.08;39.97
26376;BME280;30544;42.196;24.336;2023-06-24T09:10:53;99128.88;;;32.08;39.51
26376;BME280;30544;42.196;24.336;2023-06-24T09:13:21;99130.25;;;32.21;40.76
26376;BME280;30544;42.196;24.336;2023-06-24T09:15:49;99123.28;;;32.22;39.71
26376;BME280;30544;42.196;24.336;2023-06-24T09:18:16;99128.19;;;32.21;39.43
26376;BME280;30544;42.196;24.336;2023-06-24T09:20:43;99124.25;;;32.33;40.09
26376;BME280;30544;42.196;24.336;2023-06-24T09:23:11;99109.50;;;32.35;39.72
26376;BME280;30544;42.196;24.336;2023-06-24T09:25:38;99105.22;;;32.18;38.98
26376;BME280;30544;42.196;24.336;2023-06-24T09:28:04;99101.16;;;32.22;39.07
26376;BME280;30544;42.196;24.336;2023-06-24T09:30:31;99095.84;;;32.24;38.74
26376;BME280;30544;42.196;24.336;2023-06-24T09:32:59;99102.78;;;32.20;38.30
26376;BME280;30544;42.196;24.336;2023-06-24T09:35:26;99086.00;;;32.22;38.89
26376;BME280;30544;42.196;24.336;2023-06-24T09:37:54;99083.13;;;32.22;38.55
26376;BME280;30544;42.196;24.336;2023-06-24T09:40:22;99077.34;;;32.15;39.99
26376;BME280;30544;42.196;24.336;2023-06-24T09:42:51;99081.06;;;32.19;38.81
26376;BME280;30544;42.196;24.336;2023-06-24T09:45:23;99083.47;;;32.13;39.00
26376;BME280;30544;42.196;24.336;2023-06-24T09:47:50;99072.16;;;32.27;38.96
26376;BME280;30544;42.196;24.336;2023-06-24T09:50:18;99071.81;;;32.36;38.84
26376;BME280;30544;42.196;24.336;2023-06-24T09:52:45;99066.19;;;32.50;40.44
26376;BME280;30544;42.196;24.336;2023-06-24T09:55:13;99066.63;;;32.52;39.35
26376;BME280;30544;42.196;24.336;2023-06-24T09:57:42;99069.56;;;32.59;39.10
26376;BME280;30544;42.196;24.336;2023-06-24T10:00:14;99061.81;;;32.67;38.83
26376;BME280;30544;42.196;24.336;2023-06-24T10:02:42;99059.03;;;32.78;40.10
26376;BME280;30544;42.196;24.336;2023-06-24T10:05:09;99059.50;;;32.87;38.64
26376;BME280;30544;42.196;24.336;2023-06-24T10:07:39;99064.84;;;32.92;39.84
26376;BME280;30544;42.196;24.336;2023-06-24T10:10:07;99057.50;;;32.95;39.95
26376;BME280;30544;42.196;24.336;2023-06-24T10:12:35;99057.94;;;32.97;39.67
26376;BME280;30544;42.196;24.336;2023-06-24T10:15:03;99066.16;;;33.05;40.30
26376;BME280;30544;42.196;24.336;2023-06-24T10:17:30;99058.00;;;33.11;38.15
26376;BME280;30544;42.196;24.336;2023-06-24T10:19:57;99060.06;;;33.14;39.58
26376;BME280;30544;42.196;24.336;2023-06-24T10:22:24;99049.00;;;33.19;38.95
26376;BME280;30544;42.196;24.336;2023-06-24T10:24:52;99045.72;;;33.21;39.87
26376;BME280;30544;42.196;24.336;2023-06-24T10:27:21;99042.03;;;33.17;39.92
26376;BME280;30544;42.196;24.336;2023-06-24T10:29:48;99037.16;;;33.28;38.96
26376;BME280;30544;42.196;24.336;2023-06-24T10:32:18;99045.72;;;33.14;38.26
26376;BME280;30544;42.196;24.336;2023-06-24T10:34:46;99028.91;;;33.19;39.16
26376;BME280;30544;42.196;24.336;2023-06-24T10:37:17;99026.44;;;33.21;39.96
26376;BME280;30544;42.196;24.336;2023-06-24T10:39:49;99022.34;;;33.22;38.45
26376;BME280;30544;42.196;24.336;2023-06-24T10:42:39;99018.25;;;33.24;38.23
26376;BME280;30544;42.196;24.336;2023-06-24T10:45:16;99005.09;;;33.12;38.07
26376;BME280;30544;42.196;24.336;2023-06-24T10:47:44;99005.56;;;33.32;38.06
26376;BME280;30544;42.196;24.336;2023-06-24T10:50:13;99008.38;;;33.17;37.76
26376;BME280;30544;42.196;24.336;2023-06-24T10:52:41;99003.47;;;33.25;37.48
26376;BME280;30544;42.196;24.336;2023-06-24T10:55:08;99001.09;;;33.34;36.68
26376;BME280;30544;42.196;24.336;2023-06-24T10:57:35;98996.94;;;33.32;37.82
26376;BME280;30544;42.196;24.336;2023-06-24T11:00:06;98989.59;;;33.41;36.36
26376;BME280;30544;42.196;24.336;2023-06-24T11:02:33;98976.06;;;33.42;36.77
26376;BME280;30544;42.196;24.336;2023-06-24T11:05:03;98967.47;;;33.45;36.46
26376;BME280;30544;42.196;24.336;2023-06-24T11:07:30;98958.47;;;33.61;37.93
26376;BME280;30544;42.196;24.336;2023-06-24T11:10:02;98961.34;;;33.72;37.85
26376;BME280;30544;42.196;24.336;2023-06-24T11:12:31;98956.41;;;33.72;37.03
26376;BME280;30544;42.196;24.336;2023-06-24T11:14:59;98961.75;;;33.81;36.79
26376;BME280;30544;42.196;24.336;2023-06-24T11:17:27;98962.59;;;33.92;36.33
26376;BME280;30544;42.196;24.336;2023-06-24T11:19:55;98954.78;;;33.93;35.92
26376;BME280;30544;42.196;24.336;2023-06-24T11:22:22;98954.41;;;34.01;36.53
26376;BME280;30544;42.196;24.336;2023-06-24T11:24:49;98949.88;;;33.97;34.96
26376;BME280;30544;42.196;24.336;2023-06-24T11:27:16;98938.41;;;33.93;35.43
26376;BME280;30544;42.196;24.336;2023-06-24T11:29:44;98941.25;;;34.07;35.68
26376;BME280;30544;42.196;24.336;2023-06-24T11:32:11;98935.47;;;34.18;35.61
26376;BME280;30544;42.196;24.336;2023-06-24T11:34:39;98923.56;;;34.20;34.12
26376;BME280;30544;42.196;24.336;2023-06-24T11:37:11;98919.44;;;34.31;34.46
26376;BME280;30544;42.196;24.336;2023-06-24T11:39:38;98915.72;;;34.34;33.58
26376;BME280;30544;42.196;24.336;2023-06-24T11:42:06;98916.13;;;34.26;33.81
26376;BME280;30544;42.196;24.336;2023-06-24T11:44:34;98914.09;;;34.30;32.99
26376;BME280;30544;42.196;24.336;2023-06-24T11:47:04;98913.28;;;34.44;33.43
26376;BME280;30544;42.196;24.336;2023-06-24T11:49:31;98909.16;;;34.45;33.88
26376;BME280;30544;42.196;24.336;2023-06-24T11:51:59;98910.78;;;34.53;33.27
26376;BME280;30544;42.196;24.336;2023-06-24T11:54:26;98909.56;;;34.50;33.63
26376;BME280;30544;42.196;24.336;2023-06-24T11:56:53;98914.09;;;34.48;32.75
26376;BME280;30544;42.196;24.336;2023-06-24T11:59:22;98910.78;;;34.53;34.27
26376;BME280;30544;42.196;24.336;2023-06-24T12:01:54;98907.03;;;34.59;34.37
26376;BME280;30544;42.196;24.336;2023-06-24T12:04:22;98897.59;;;34.59;35.31
26376;BME280;30544;42.196;24.336;2023-06-24T12:06:53;98891.09;;;34.44;33.53
26376;BME280;30544;42.196;24.336;2023-06-24T12:09:21;98885.31;;;34.41;34.99
26376;BME280;30544;42.196;24.336;2023-06-24T12:11:48;98883.28;;;34.37;35.19
26376;BME280;30544;42.196;24.336;2023-06-24T12:14:15;98881.19;;;34.34;33.77
26376;BME280;30544;42.196;24.336;2023-06-24T12:16:42;98888.22;;;34.37;34.89
26376;BME280;30544;42.196;24.336;2023-06-24T12:19:09;98870.53;;;34.28;34.32
26376;BME280;30544;42.196;24.336;2023-06-24T12:21:37;98868.06;;;34.23;34.12
26376;BME280;30544;42.196;24.336;2023-06-24T12:24:04;98854.91;;;34.32;35.05
26376;BME280;30544;42.196;24.336;2023-06-24T12:26:33;98861.06;;;34.34;34.60
26376;BME280;30544;42.196;24.336;2023-06-24T12:29:01;98844.22;;;34.40;34.67
26376;BME280;30544;42.196;24.336;2023-06-24T12:31:27;98854.88;;;34.47;34.59
26376;BME280;30544;42.196;24.336;2023-06-24T12:33:54;98847.41;;;34.60;35.65
26376;BME280;30544;42.196;24.336;2023-06-24T12:36:21;98842.47;;;34.67;34.87
26376;BME280;30544;42.196;24.336;2023-06-24T12:38:48;98849.81;;;34.79;35.08
26376;BME280;30544;42.196;24.336;2023-06-24T12:41:15;98839.91;;;34.84;34.02
26376;BME280;30544;42.196;24.336;2023-06-24T12:43:43;98838.22;;;34.93;34.08
26376;BME280;30544;42.196;24.336;2023-06-24T12:46:10;98839.06;;;34.94;34.03
26376;BME280;30544;42.196;24.336;2023-06-24T12:48:36;98835.34;;;34.97;34.10
26376;BME280;30544;42.196;24.336;2023-06-24T12:51:03;98836.91;;;35.05;34.82
26376;BME280;30544;42.196;24.336;2023-06-24T12:53:30;98829.09;;;35.06;34.61